Time;durP1;ratioP1;P1;durP2;ratioP2;P2;SDS_P1;SDS_P2;PMS_P1;PMS_P2;Temp;Humidity;BMP_temperature;BMP_pressure;BME280_temperature;BME280_humidity;BME280_pressure;Samples;Min_cycle;Max_cycle;Signal;HPM_P1;HPM_P2
2022/08/27 00:00:31;;;;;;;;;;;15.70;99.90;;;;;;5085891;28;19939;-56
2022/08/27 00:03:00;;;;;;;;;;;15.60;99.90;;;;;;5081727;28;19932;-56
2022/08/27 00:05:27;;;;;;;;;;;15.60;99.90;;;;;;5090678;28;20419;-56
2022/08/27 00:07:55;;;;;;;;;;;15.60;99.90;;;;;;5083358;28;19924;-56
2022/08/27 00:10:24;;;;;;;;;;;15.60;99.90;;;;;;5081769;28;19928;-56
2022/08/27 00:12:52;;;;;;;;;;;15.50;99.90;;;;;;5089446;28;19924;-56
2022/08/27 00:15:19;;;;;;;;;;;15.50;99.90;;;;;;5090527;28;19927;-56
2022/08/27 00:17:48;;;;;;;;;;;15.50;99.90;;;;;;5090254;28;20385;-56
2022/08/27 00:20:17;;;;;;;;;;;15.40;99.90;;;;;;5090835;28;20433;-56
2022/08/27 00:22:44;;;;;;;;;;;15.40;99.90;;;;;;5069208;28;19924;-56
2022/08/27 00:25:12;;;;;;;;;;;15.30;99.90;;;;;;5084829;28;19923;-56
2022/08/27 00:27:39;;;;;;;;;;;15.30;99.90;;;;;;5083977;28;19928;-56
2022/08/27 00:30:08;;;;;;;;;;;15.20;99.90;;;;;;5089740;28;20299;-56
2022/08/27 00:32:37;;;;;;;;;;;15.20;99.90;;;;;;5082557;28;20406;-56
2022/08/27 00:35:05;;;;;;;;;;;15.10;99.90;;;;;;5090433;28;20287;-59
2022/08/27 00:37:33;;;;;;;;;;;15.10;99.90;;;;;;5088680;28;19924;-57
2022/08/27 00:40:01;;;;;;;;;;;15.00;99.90;;;;;;5084147;28;19933;-56
2022/08/27 00:42:28;;;;;;;;;;;15.00;99.90;;;;;;5070996;28;19924;-56
2022/08/27 00:44:58;;;;;;;;;;;15.00;99.90;;;;;;5080250;28;19932;-56
2022/08/27 00:47:28;;;;;;;;;;;14.90;99.90;;;;;;5084853;28;19931;-56
2022/08/27 00:49:57;;;;;;;;;;;14.90;99.90;;;;;;5073731;28;19932;-56
2022/08/27 00:52:27;;;;;;;;;;;14.80;99.90;;;;;;5086545;28;19931;-56
2022/08/27 00:54:59;;;;;;;;;;;14.80;99.90;;;;;;5086273;28;20341;-56
2022/08/27 00:57:27;;;;;;;;;;;14.70;99.90;;;;;;5089187;28;19924;-56
2022/08/27 00:59:58;;;;;;;;;;;14.70;99.90;;;;;;5088577;28;19928;-56
2022/08/27 01:02:29;;;;;;;;;;;14.70;99.90;;;;;;5073711;28;19928;-56
2022/08/27 01:04:59;;;;;;;;;;;14.60;99.90;;;;;;5082966;28;20481;-56
2022/08/27 01:07:28;;;;;;;;;;;14.70;99.90;;;;;;5067713;28;19924;-56
2022/08/27 01:09:59;;;;;;;;;;;14.60;99.90;;;;;;5072143;28;20372;-56
2022/08/27 01:12:27;;;;;;;;;;;14.60;99.90;;;;;;5068593;28;19936;-56
2022/08/27 01:14:55;;;;;;;;;;;14.50;99.90;;;;;;5083975;28;19931;-56
2022/08/27 01:17:23;;;;;;;;;;;14.50;99.90;;;;;;5085871;28;19932;-56
2022/08/27 01:19:56;;;;;;;;;;;14.40;99.90;;;;;;5088122;28;19928;-56
2022/08/27 01:22:44;;;;;;;;;;;14.40;99.90;;;;;;5084961;28;19924;-56
2022/08/27 01:25:13;;;;;;;;;;;14.40;99.90;;;;;;5086378;28;20326;-56
2022/08/27 01:27:42;;;;;;;;;;;14.40;99.90;;;;;;5087223;28;19935;-57
2022/08/27 01:30:10;;;;;;;;;;;14.30;99.90;;;;;;5076527;28;19928;-57
2022/08/27 01:32:38;;;;;;;;;;;14.30;99.90;;;;;;5077330;28;19924;-57
2022/08/27 01:35:07;;;;;;;;;;;14.30;99.90;;;;;;5077858;28;20423;-56
2022/08/27 01:37:35;;;;;;;;;;;14.30;99.90;;;;;;5092392;28;20267;-56
2022/08/27 01:40:04;;;;;;;;;;;14.20;99.90;;;;;;5090627;28;19924;-56
2022/08/27 01:42:36;;;;;;;;;;;14.20;99.90;;;;;;5087889;28;19924;-56
2022/08/27 01:45:06;;;;;;;;;;;14.20;99.90;;;;;;5092117;28;19924;-56
2022/08/27 01:47:34;;;;;;;;;;;14.10;99.90;;;;;;5073663;28;20524;-56
2022/08/27 01:50:09;;;;;;;;;;;14.10;99.90;;;;;;5081085;28;19924;-56
2022/08/27 01:52:37;;;;;;;;;;;14.10;99.90;;;;;;5085364;28;19923;-56
2022/08/27 01:55:07;;;;;;;;;;;14.00;99.90;;;;;;5092136;28;19931;-56
2022/08/27 01:57:35;;;;;;;;;;;14.00;99.90;;;;;;5091905;28;19924;-56
2022/08/27 02:00:10;;;;;;;;;;;13.90;99.90;;;;;;5073073;28;19951;-57
2022/08/27 02:02:40;;;;;;;;;;;14.00;99.90;;;;;;5092139;28;19924;-56
2022/08/27 02:05:08;;;;;;;;;;;13.90;99.90;;;;;;5088901;28;19943;-56
2022/08/27 02:07:36;;;;;;;;;;;13.90;99.90;;;;;;5073057;28;20284;-56
2022/08/27 02:10:06;;;;;;;;;;;13.80;99.90;;;;;;5072319;28;19932;-57
2022/08/27 02:12:33;;;;;;;;;;;13.80;99.90;;;;;;5086413;28;19924;-59
2022/08/27 02:15:01;;;;;;;;;;;13.80;99.90;;;;;;5073797;28;19924;-56
2022/08/27 02:17:28;;;;;;;;;;;13.70;99.90;;;;;;5071983;28;20086;-55
2022/08/27 02:19:56;;;;;;;;;;;13.70;99.90;;;;;;5074428;28;20291;-56
2022/08/27 02:22:23;;;;;;;;;;;13.60;99.90;;;;;;5083560;28;20400;-56
2022/08/27 02:24:51;;;;;;;;;;;13.60;99.90;;;;;;5071583;28;19924;-56
2022/08/27 02:27:18;;;;;;;;;;;13.60;99.90;;;;;;5091841;28;19931;-56
2022/08/27 02:29:46;;;;;;;;;;;13.60;99.90;;;;;;5091510;28;19925;-56
2022/08/27 02:32:16;;;;;;;;;;;13.60;99.90;;;;;;5086846;28;19931;-56
2022/08/27 02:34:58;;;;;;;;;;;13.50;99.90;;;;;;5075295;28;19925;-57
2022/08/27 02:37:26;;;;;;;;;;;13.50;99.90;;;;;;5080612;28;19935;-55
2022/08/27 02:39:53;;;;;;;;;;;13.50;99.90;;;;;;5081497;28;19931;-56
2022/08/27 02:42:21;;;;;;;;;;;13.50;99.90;;;;;;5072533;28;20042;-55
2022/08/27 02:44:48;;;;;;;;;;;13.50;99.90;;;;;;5071342;28;19947;-56
2022/08/27 02:47:16;;;;;;;;;;;13.50;99.90;;;;;;5075692;28;19925;-56
2022/08/27 02:49:43;;;;;;;;;;;13.50;99.90;;;;;;5088389;28;20276;-56
2022/08/27 02:52:11;;;;;;;;;;;13.50;99.90;;;;;;5085158;28;19936;-56
2022/08/27 02:54:39;;;;;;;;;;;13.50;99.90;;;;;;5072066;28;19931;-56
2022/08/27 02:57:06;;;;;;;;;;;13.50;99.90;;;;;;5080168;28;19924;-56
2022/08/27 02:59:34;;;;;;;;;;;13.50;99.90;;;;;;5092045;28;19924;-56
2022/08/27 03:02:02;;;;;;;;;;;13.50;99.90;;;;;;5074901;28;19924;-56
2022/08/27 03:04:29;;;;;;;;;;;13.50;99.90;;;;;;5073515;28;20277;-56
2022/08/27 03:06:57;;;;;;;;;;;13.50;99.90;;;;;;5081160;28;19924;-56
2022/08/27 03:09:24;;;;;;;;;;;13.50;99.90;;;;;;5078532;28;19951;-56
2022/08/27 03:11:52;;;;;;;;;;;13.50;99.90;;;;;;5090070;28;19924;-56
2022/08/27 03:14:19;;;;;;;;;;;13.50;99.90;;;;;;5087049;28;19932;-56
2022/08/27 03:16:47;;;;;;;;;;;13.50;99.90;;;;;;5074449;28;19924;-56
2022/08/27 03:19:14;;;;;;;;;;;13.50;99.90;;;;;;5090351;28;19925;-56
2022/08/27 03:21:52;;;;;;;;;;;13.40;99.90;;;;;;5073498;28;20452;-56
2022/08/27 03:24:21;;;;;;;;;;;13.40;99.90;;;;;;5088507;28;19950;-56
2022/08/27 03:26:48;;;;;;;;;;;13.40;99.90;;;;;;5093593;28;20406;-56
2022/08/27 03:29:19;;;;;;;;;;;13.30;99.90;;;;;;5077196;28;20264;-56
2022/08/27 03:31:47;;;;;;;;;;;13.30;99.90;;;;;;5073498;28;19931;-55
2022/08/27 03:34:15;;;;;;;;;;;13.30;99.90;;;;;;5075197;28;20378;-56
2022/08/27 03:36:47;;;;;;;;;;;13.20;99.90;;;;;;5094836;28;19924;-56
2022/08/27 03:39:15;;;;;;;;;;;13.20;99.90;;;;;;5081779;28;19925;-55
2022/08/27 03:41:43;;;;;;;;;;;13.10;99.90;;;;;;5073840;28;19931;-56
2022/08/27 03:44:22;;;;;;;;;;;13.10;99.90;;;;;;5073082;28;19924;-56
2022/08/27 03:46:50;;;;;;;;;;;13.10;99.90;;;;;;5073779;28;19931;-56
2022/08/27 03:49:19;;;;;;;;;;;13.10;99.90;;;;;;5074122;28;19924;-56
2022/08/27 03:51:49;;;;;;;;;;;13.10;99.90;;;;;;5087776;28;19950;-56
2022/08/27 03:54:16;;;;;;;;;;;13.00;99.90;;;;;;5092677;28;19931;-56
2022/08/27 03:56:44;;;;;;;;;;;13.00;99.90;;;;;;5094405;28;19924;-56
2022/08/27 03:59:11;;;;;;;;;;;13.00;99.90;;;;;;5081574;28;20379;-56
2022/08/27 04:01:39;;;;;;;;;;;13.00;99.90;;;;;;5073795;28;19947;-56
2022/08/27 04:04:06;;;;;;;;;;;12.90;99.90;;;;;;5075831;28;19924;-56
2022/08/27 04:06:34;;;;;;;;;;;12.90;99.90;;;;;;5081861;28;19932;-56
2022/08/27 04:09:02;;;;;;;;;;;12.90;99.90;;;;;;5080082;28;19924;-56
2022/08/27 04:11:32;;;;;;;;;;;12.80;99.90;;;;;;5092854;28;19924;-56
2022/08/27 04:14:01;;;;;;;;;;;12.80;99.90;;;;;;5086450;28;19932;-55
2022/08/27 04:16:39;;;;;;;;;;;12.80;99.90;;;;;;5083220;28;19925;-56
2022/08/27 04:19:06;;;;;;;;;;;12.80;99.90;;;;;;5072112;28;19939;-56
2022/08/27 04:21:34;;;;;;;;;;;12.70;99.90;;;;;;5072930;28;19924;-56
2022/08/27 04:24:02;;;;;;;;;;;12.70;99.90;;;;;;5073465;28;19931;-56
2022/08/27 04:26:29;;;;;;;;;;;12.70;99.90;;;;;;5085483;28;20408;-55
2022/08/27 04:28:57;;;;;;;;;;;12.70;99.90;;;;;;5091334;28;19931;-56
2022/08/27 04:31:25;;;;;;;;;;;12.60;99.90;;;;;;5093282;28;20379;-56
2022/08/27 04:33:52;;;;;;;;;;;12.60;99.90;;;;;;5073302;28;19932;-56
2022/08/27 04:36:20;;;;;;;;;;;12.60;99.90;;;;;;5073247;28;19931;-56
2022/08/27 04:38:47;;;;;;;;;;;12.60;99.90;;;;;;5073230;28;19929;-56
2022/08/27 04:41:21;;;;;;;;;;;12.60;99.90;;;;;;5081143;28;19925;-56
2022/08/27 04:43:53;;;;;;;;;;;12.60;99.90;;;;;;5091838;28;19924;-56
2022/08/27 04:46:21;;;;;;;;;;;12.60;99.90;;;;;;5092851;28;19924;-56
2022/08/27 04:48:49;;;;;;;;;;;12.50;99.90;;;;;;5070123;28;19925;-56
2022/08/27 04:51:18;;;;;;;;;;;12.50;99.90;;;;;;5079304;28;20319;-56
2022/08/27 04:53:47;;;;;;;;;;;12.50;99.90;;;;;;5089975;28;19946;-56
2022/08/27 04:56:15;;;;;;;;;;;12.40;99.90;;;;;;5076479;28;19931;-56
2022/08/27 04:58:43;;;;;;;;;;;12.40;99.90;;;;;;5082267;28;19935;-56
2022/08/27 05:01:15;;;;;;;;;;;12.40;99.90;;;;;;5080101;28;19947;-56
2022/08/27 05:03:43;;;;;;;;;;;12.40;99.90;;;;;;5070777;28;20634;-56
2022/08/27 05:06:12;;;;;;;;;;;12.30;99.90;;;;;;5074748;28;19931;-56
2022/08/27 05:08:39;;;;;;;;;;;12.30;99.90;;;;;;5079562;28;19924;-64
2022/08/27 05:11:08;;;;;;;;;;;12.30;99.90;;;;;;5084238;28;19928;-56
2022/08/27 05:13:36;;;;;;;;;;;12.30;99.90;;;;;;5084251;28;19935;-56
2022/08/27 05:16:06;;;;;;;;;;;12.30;99.90;;;;;;5086299;28;19928;-56
2022/08/27 05:18:34;;;;;;;;;;;12.30;99.90;;;;;;5084195;28;19939;-56
2022/08/27 05:21:15;;;;;;;;;;;12.20;99.90;;;;;;5072388;28;19929;-56
2022/08/27 05:23:42;;;;;;;;;;;12.20;99.90;;;;;;5070758;28;19931;-56
2022/08/27 05:26:09;;;;;;;;;;;12.20;99.90;;;;;;5066074;28;19991;-56
2022/08/27 05:28:37;;;;;;;;;;;12.30;99.90;;;;;;5078608;28;19935;-56
2022/08/27 05:31:06;;;;;;;;;;;12.30;99.90;;;;;;5086226;28;19924;-57
2022/08/27 05:33:34;;;;;;;;;;;12.20;99.90;;;;;;5084993;28;19936;-56
2022/08/27 05:36:02;;;;;;;;;;;12.20;99.90;;;;;;5077092;28;19947;-56
2022/08/27 05:38:31;;;;;;;;;;;12.20;99.90;;;;;;5074249;28;19924;-56
2022/08/27 05:41:10;;;;;;;;;;;12.20;99.90;;;;;;5082227;28;19935;-56
2022/08/27 05:43:38;;;;;;;;;;;12.20;99.90;;;;;;5085389;28;19998;-56
2022/08/27 05:46:15;;;;;;;;;;;12.20;99.90;;;;;;5075607;28;19932;-56
2022/08/27 05:48:43;;;;;;;;;;;12.20;99.90;;;;;;5070521;28;19929;-56
2022/08/27 05:51:12;;;;;;;;;;;12.20;99.90;;;;;;5070018;28;20280;-56
2022/08/27 05:53:42;;;;;;;;;;;12.20;99.90;;;;;;5077471;28;19924;-56
2022/08/27 05:56:11;;;;;;;;;;;12.20;99.90;;;;;;5089038;28;19935;-56
2022/08/27 06:01:25;;;;;;;;;;;12.20;99.90;;;;;;5084182;28;19924;-56
2022/08/27 06:03:53;;;;;;;;;;;12.30;99.90;;;;;;5084530;28;19943;-56
2022/08/27 06:06:24;;;;;;;;;;;12.30;99.90;;;;;;5077793;28;20003;-55
2022/08/27 06:08:52;;;;;;;;;;;12.30;99.90;;;;;;5083695;28;19932;-56
2022/08/27 06:11:22;;;;;;;;;;;12.40;99.90;;;;;;5085923;28;20308;-56
2022/08/27 06:13:49;;;;;;;;;;;12.40;99.90;;;;;;5082425;28;19924;-57
2022/08/27 06:16:17;;;;;;;;;;;12.50;99.90;;;;;;5064568;28;19931;-56
2022/08/27 06:18:46;;;;;;;;;;;12.50;99.90;;;;;;5065875;28;19924;-56
2022/08/27 06:21:14;;;;;;;;;;;12.50;99.90;;;;;;5068922;28;19924;-56
2022/08/27 06:23:42;;;;;;;;;;;12.50;99.90;;;;;;5076055;28;19932;-56
2022/08/27 06:26:11;;;;;;;;;;;12.60;99.90;;;;;;5071136;28;19936;-56
2022/08/27 06:28:41;;;;;;;;;;;12.60;99.90;;;;;;5079366;28;19924;-57
2022/08/27 06:31:17;;;;;;;;;;;12.60;99.90;;;;;;5091548;28;19936;-56
2022/08/27 06:33:45;;;;;;;;;;;12.70;99.90;;;;;;5085645;28;20386;-56
2022/08/27 06:36:14;;;;;;;;;;;12.80;99.90;;;;;;5087905;28;19925;-56
2022/08/27 06:38:42;;;;;;;;;;;12.90;99.90;;;;;;5085927;28;20280;-56
2022/08/27 06:41:11;;;;;;;;;;;12.90;99.90;;;;;;5083731;28;19932;-56
2022/08/27 06:43:50;;;;;;;;;;;13.10;99.90;;;;;;5087883;28;19924;-56
2022/08/27 06:46:19;;;;;;;;;;;13.30;99.90;;;;;;5088106;28;19931;-56
2022/08/27 06:48:49;;;;;;;;;;;13.40;99.90;;;;;;5091947;28;19931;-56
2022/08/27 06:51:24;;;;;;;;;;;13.60;99.90;;;;;;5086181;28;19931;-55
2022/08/27 06:53:54;;;;;;;;;;;13.70;99.90;;;;;;5084852;28;19929;-56
2022/08/27 06:56:22;;;;;;;;;;;13.80;99.90;;;;;;5086511;28;20307;-56
2022/08/27 06:58:57;;;;;;;;;;;14.00;99.90;;;;;;5078971;28;20390;-57
2022/08/27 07:01:26;;;;;;;;;;;14.10;99.90;;;;;;5069896;28;19929;-56
2022/08/27 07:03:57;;;;;;;;;;;14.20;99.90;;;;;;5084674;28;19924;-57
2022/08/27 07:06:26;;;;;;;;;;;14.30;99.90;;;;;;5076337;28;19932;-56
2022/08/27 07:08:53;;;;;;;;;;;14.30;99.90;;;;;;5087471;28;19924;-56
2022/08/27 07:11:21;;;;;;;;;;;14.40;99.90;;;;;;5083103;28;20296;-56
2022/08/27 07:13:49;;;;;;;;;;;14.50;99.90;;;;;;5069649;28;19928;-55
2022/08/27 07:16:18;;;;;;;;;;;14.50;99.90;;;;;;5054198;28;19935;-55
2022/08/27 07:18:49;;;;;;;;;;;14.60;99.90;;;;;;5081971;28;19924;-56
2022/08/27 07:21:20;;;;;;;;;;;14.70;99.90;;;;;;5090197;28;19935;-55
2022/08/27 07:23:49;;;;;;;;;;;14.70;99.90;;;;;;5077858;28;19939;-56
2022/08/27 07:26:18;;;;;;;;;;;14.80;99.90;;;;;;5087044;28;19929;-55
2022/08/27 07:28:46;;;;;;;;;;;14.90;99.90;;;;;;5075746;28;19932;-56
2022/08/27 07:31:17;;;;;;;;;;;14.90;99.90;;;;;;5084365;28;20298;-56
2022/08/27 07:33:46;;;;;;;;;;;15.00;99.90;;;;;;5087611;28;19928;-56
2022/08/27 07:36:20;;;;;;;;;;;15.10;99.90;;;;;;5088355;28;19991;-56
2022/08/27 07:38:48;;;;;;;;;;;15.10;99.90;;;;;;5091374;28;19928;-56
2022/08/27 07:41:28;;;;;;;;;;;15.20;99.90;;;;;;5090844;28;20500;-56
2022/08/27 07:44:43;;;;;;;;;;;15.30;99.90;;;;;;5077348;28;19931;-56
2022/08/27 07:46:54;;;;;;;;;;;15.40;99.90;;;;;;5070235;28;19929;-55
2022/08/27 07:49:22;;;;;;;;;;;15.40;99.90;;;;;;5090157;28;20295;-56
2022/08/27 07:51:50;;;;;;;;;;;15.50;99.90;;;;;;5091286;28;19924;-56
2022/08/27 07:54:20;;;;;;;;;;;15.60;99.90;;;;;;5091374;28;19924;-56
2022/08/27 07:56:47;;;;;;;;;;;15.60;99.90;;;;;;5083531;28;20394;-56
2022/08/27 07:59:23;;;;;;;;;;;15.60;99.90;;;;;;5090946;28;19931;-56
2022/08/27 08:01:51;;;;;;;;;;;15.70;99.90;;;;;;5071387;28;19924;-55
2022/08/27 08:04:21;;;;;;;;;;;15.70;99.90;;;;;;5091547;28;20415;-56
2022/08/27 08:06:49;;;;;;;;;;;15.90;99.90;;;;;;5070355;28;20315;-56
2022/08/27 08:09:17;;;;;;;;;;;16.00;99.90;;;;;;5076129;28;19954;-56
2022/08/27 08:11:45;;;;;;;;;;;16.10;99.90;;;;;;5090853;28;19931;-56
2022/08/27 08:14:12;;;;;;;;;;;16.20;99.90;;;;;;5067582;28;19932;-56
2022/08/27 08:16:40;;;;;;;;;;;16.40;99.90;;;;;;5081763;28;20537;-56
2022/08/27 08:19:08;;;;;;;;;;;16.60;99.90;;;;;;5085196;28;19924;-56
2022/08/27 08:21:36;;;;;;;;;;;16.80;99.90;;;;;;5089371;28;19947;-56
2022/08/27 08:24:04;;;;;;;;;;;17.00;99.90;;;;;;5077542;28;20109;-57
2022/08/27 08:26:32;;;;;;;;;;;17.10;99.90;;;;;;5082386;28;19931;-56
2022/08/27 08:29:03;;;;;;;;;;;17.30;99.90;;;;;;5089117;28;19931;-57
2022/08/27 08:31:31;;;;;;;;;;;17.40;99.90;;;;;;5086725;28;20283;-56
2022/08/27 08:33:58;;;;;;;;;;;17.60;99.90;;;;;;5087225;28;19931;-57
2022/08/27 08:36:25;;;;;;;;;;;17.70;99.90;;;;;;5086722;28;19932;-56
2022/08/27 08:38:53;;;;;;;;;;;17.80;99.90;;;;;;5087477;28;19924;-57
2022/08/27 08:41:31;;;;;;;;;;;18.00;99.90;;;;;;5090390;28;19931;-56
2022/08/27 08:43:59;;;;;;;;;;;18.10;99.90;;;;;;5089947;28;19924;-57
2022/08/27 08:46:47;;;;;;;;;;;18.20;99.90;;;;;;5088329;28;19931;-56
2022/08/27 08:49:33;;;;;;;;;;;18.30;99.90;;;;;;5075340;28;19931;-56
2022/08/27 08:52:13;;;;;;;;;;;18.40;99.90;;;;;;5087496;28;19931;-56
2022/08/27 08:55:10;;;;;;;;;;;18.40;99.90;;;;;;5075955;28;20403;-56
2022/08/27 08:57:42;;;;;;;;;;;18.50;99.90;;;;;;5089077;28;19924;-56
2022/08/27 09:00:11;;;;;;;;;;;18.50;99.90;;;;;;5088645;28;19928;-56
2022/08/27 09:02:41;;;;;;;;;;;18.50;99.90;;;;;;5087940;28;19928;-56
2022/08/27 09:05:10;;;;;;;;;;;18.60;99.90;;;;;;5089300;28;20033;-56
2022/08/27 09:07:44;;;;;;;;;;;18.80;99.90;;;;;;5087579;28;19931;-56
2022/08/27 09:10:13;;;;;;;;;;;18.90;99.90;;;;;;5079780;28;19925;-56
2022/08/27 09:12:40;;;;;;;;;;;19.10;99.90;;;;;;5075838;28;19924;-57
2022/08/27 09:15:13;;;;;;;;;;;19.10;99.90;;;;;;5088221;28;19999;-57
2022/08/27 09:17:43;;;;;;;;;;;19.20;99.90;;;;;;5089207;28;19925;-56
2022/08/27 09:20:12;;;;;;;;;;;19.30;99.90;;;;;;5071652;28;19924;-57
2022/08/27 09:22:52;;;;;;;;;;;19.40;99.90;;;;;;5079361;28;19931;-57
2022/08/27 09:25:33;;;;;;;;;;;19.40;99.90;;;;;;5089425;28;19924;-57
2022/08/27 09:28:05;;;;;;;;;;;19.50;99.90;;;;;;5082159;28;20291;-57
2022/08/27 09:30:40;;;;;;;;;;;19.60;99.90;;;;;;5088514;28;19935;-57
2022/08/27 09:33:08;;;;;;;;;;;19.60;99.90;;;;;;5071246;28;20402;-57
2022/08/27 09:35:43;;;;;;;;;;;19.70;99.90;;;;;;5087951;28;19931;-57
2022/08/27 09:38:21;;;;;;;;;;;19.80;99.90;;;;;;5086694;28;19935;-57
2022/08/27 09:40:49;;;;;;;;;;;19.80;99.90;;;;;;5089222;28;19928;-57
2022/08/27 09:43:25;;;;;;;;;;;19.90;99.90;;;;;;5078632;28;20321;-57
2022/08/27 09:45:54;;;;;;;;;;;20.00;99.90;;;;;;5085924;28;20123;-57
2022/08/27 09:48:27;;;;;;;;;;;20.10;99.90;;;;;;5072450;28;19994;-58
2022/08/27 09:51:07;;;;;;;;;;;20.20;99.90;;;;;;5082326;28;19924;-57
2022/08/27 09:53:49;;;;;;;;;;;20.20;99.90;;;;;;5072899;28;19935;-57
2022/08/27 09:56:26;;;;;;;;;;;20.20;99.90;;;;;;5076323;28;19924;-57
2022/08/27 09:58:59;;;;;;;;;;;20.30;99.90;;;;;;5086009;28;19935;-57
2022/08/27 10:01:29;;;;;;;;;;;20.20;99.90;;;;;;5088452;28;20395;-57
2022/08/27 10:04:06;;;;;;;;;;;20.10;99.90;;;;;;5086797;28;19925;-57
2022/08/27 10:06:34;;;;;;;;;;;20.10;99.90;;;;;;5067652;28;20402;-57
2022/08/27 10:09:12;;;;;;;;;;;20.10;99.90;;;;;;5083696;28;19924;-57
2022/08/27 10:12:02;;;;;;;;;;;20.10;99.90;;;;;;5082443;28;19927;-57
2022/08/27 10:14:31;;;;;;;;;;;20.10;99.90;;;;;;5071266;28;20295;-57
2022/08/27 10:17:05;;;;;;;;;;;20.10;99.90;;;;;;5077325;28;19986;-57
2022/08/27 10:19:53;;;;;;;;;;;20.20;99.90;;;;;;5070295;28;19932;-57
2022/08/27 10:22:41;;;;;;;;;;;20.30;99.90;;;;;;5072785;28;19936;-57
2022/08/27 10:25:23;;;;;;;;;;;20.40;99.90;;;;;;5088020;28;20319;-57
2022/08/27 10:27:54;;;;;;;;;;;20.50;99.90;;;;;;5080563;28;19931;-58
2022/08/27 10:30:27;;;;;;;;;;;20.60;99.90;;;;;;5069138;28;20384;-57
2022/08/27 10:33:01;;;;;;;;;;;20.60;99.90;;;;;;5072560;28;20392;-57
2022/08/27 10:35:36;;;;;;;;;;;20.80;99.90;;;;;;5070177;28;19928;-58
2022/08/27 10:38:30;;;;;;;;;;;20.90;99.90;;;;;;5078151;28;20482;-57
2022/08/27 10:41:02;;;;;;;;;;;21.00;99.90;;;;;;5072291;28;19932;-57
2022/08/27 10:43:48;;;;;;;;;;;21.00;99.90;;;;;;5078583;28;20694;-57
2022/08/27 10:46:19;;;;;;;;;;;21.00;99.90;;;;;;5065268;28;19931;-57
2022/08/27 10:49:10;;;;;;;;;;;21.00;99.90;;;;;;5080356;28;19928;-56
2022/08/27 10:51:52;;;;;;;;;;;21.00;99.90;;;;;;5085274;28;19924;-57
2022/08/27 10:54:19;;;;;;;;;;;21.20;99.90;;;;;;5083045;28;19932;-57
2022/08/27 10:56:56;;;;;;;;;;;21.30;99.90;;;;;;5085273;28;19928;-57
2022/08/27 10:59:48;;;;;;;;;;;21.40;99.90;;;;;;5084896;28;19925;-56
2022/08/27 11:02:35;;;;;;;;;;;21.40;99.90;;;;;;5084939;28;19927;-58
2022/08/27 11:05:11;;;;;;;;;;;21.50;99.90;;;;;;5085180;28;19928;-57
2022/08/27 11:07:41;;;;;;;;;;;21.50;99.90;;;;;;5084604;28;19924;-57
2022/08/27 11:10:14;;;;;;;;;;;21.50;99.90;;;;;;5084865;28;19924;-57
2022/08/27 11:12:48;;;;;;;;;;;21.50;99.90;;;;;;5083710;28;19932;-56
2022/08/27 11:15:21;;;;;;;;;;;21.50;99.90;;;;;;5064727;28;20291;-57
2022/08/27 11:17:53;;;;;;;;;;;21.60;99.90;;;;;;5073024;28;19931;-57
2022/08/27 11:20:24;;;;;;;;;;;21.80;99.90;;;;;;5086915;28;19942;-57
2022/08/27 11:22:52;;;;;;;;;;;22.00;99.90;;;;;;5051611;28;19928;-57
2022/08/27 11:25:25;;;;;;;;;;;22.20;99.90;;;;;;5068025;28;19935;-57
2022/08/27 11:27:53;;;;;;;;;;;22.50;99.90;;;;;;5073480;28;19928;-57
2022/08/27 11:30:21;;;;;;;;;;;22.80;99.90;;;;;;5076841;28;19924;-57
2022/08/27 11:32:54;;;;;;;;;;;23.00;99.60;;;;;;5073558;28;20403;-60
2022/08/27 11:35:31;;;;;;;;;;;23.00;98.80;;;;;;5067555;28;19935;-57
2022/08/27 11:38:14;;;;;;;;;;;22.90;97.70;;;;;;5077835;28;20481;-57
2022/08/27 11:40:53;;;;;;;;;;;22.80;98.30;;;;;;5068103;28;19936;-57
2022/08/27 11:43:23;;;;;;;;;;;22.70;99.20;;;;;;5086620;28;19924;-57
2022/08/27 11:45:57;;;;;;;;;;;23.10;99.30;;;;;;5088154;28;20291;-57
2022/08/27 11:48:33;;;;;;;;;;;23.50;99.30;;;;;;5088330;28;19927;-57
2022/08/27 11:51:04;;;;;;;;;;;23.90;98.70;;;;;;5088198;28;19924;-57
2022/08/27 11:53:33;;;;;;;;;;;24.50;98.00;;;;;;5086316;28;19935;-57
2022/08/27 11:56:27;;;;;;;;;;;25.00;96.40;;;;;;5087636;28;19994;-57
2022/08/27 11:58:55;;;;;;;;;;;25.40;95.00;;;;;;5086316;28;19931;-57
2022/08/27 12:01:25;;;;;;;;;;;25.50;94.30;;;;;;5087705;28;20283;-57
2022/08/27 12:04:11;;;;;;;;;;;25.30;93.60;;;;;;5085940;28;20394;-57
2022/08/27 12:06:41;;;;;;;;;;;24.90;93.80;;;;;;5087604;28;19924;-57
2022/08/27 12:09:14;;;;;;;;;;;24.70;93.90;;;;;;5085963;28;20410;-57
2022/08/27 12:11:52;;;;;;;;;;;24.30;93.30;;;;;;5086148;28;19924;-57
2022/08/27 12:14:32;;;;;;;;;;;24.30;93.90;;;;;;5086761;28;19931;-57
2022/08/27 12:17:17;;;;;;;;;;;24.70;94.50;;;;;;5087262;28;19924;-57
2022/08/27 12:20:04;;;;;;;;;;;25.10;93.60;;;;;;5087354;28;20402;-57
2022/08/27 12:25:34;;;;;;;;;;;25.00;92.30;;;;;;5087497;28;19931;-57
2022/08/27 12:28:03;;;;;;;;;;;24.60;92.40;;;;;;5087089;28;20248;-57
2022/08/27 12:30:35;;;;;;;;;;;24.40;92.90;;;;;;5088868;28;19928;-57
2022/08/27 12:33:23;;;;;;;;;;;24.50;94.30;;;;;;5090318;28;19924;-56
2022/08/27 12:35:53;;;;;;;;;;;24.70;94.00;;;;;;5086267;28;19928;-57
2022/08/27 12:38:31;;;;;;;;;;;25.30;92.80;;;;;;5086596;28;19931;-57
2022/08/27 12:41:07;;;;;;;;;;;25.50;92.10;;;;;;5069410;28;20398;-57
2022/08/27 12:43:42;;;;;;;;;;;25.50;91.60;;;;;;5084597;28;19924;-57
2022/08/27 12:46:12;;;;;;;;;;;25.30;91.60;;;;;;5075401;28;19929;-57
2022/08/27 12:48:42;;;;;;;;;;;25.10;91.90;;;;;;5082463;28;19924;-57
2022/08/27 12:51:15;;;;;;;;;;;25.00;92.20;;;;;;5090169;28;20407;-57
2022/08/27 12:53:42;;;;;;;;;;;25.10;93.10;;;;;;5089669;28;19924;-57
2022/08/27 12:56:10;;;;;;;;;;;25.30;92.50;;;;;;5090176;28;20022;-57
2022/08/27 12:58:43;;;;;;;;;;;25.50;92.10;;;;;;5087553;28;19924;-57
2022/08/27 13:01:14;;;;;;;;;;;25.60;91.90;;;;;;5086717;28;20369;-57
2022/08/27 13:03:46;;;;;;;;;;;25.50;91.20;;;;;;5086420;28;19940;-57
2022/08/27 13:06:18;;;;;;;;;;;25.20;90.80;;;;;;5085541;28;19924;-57
2022/08/27 13:08:52;;;;;;;;;;;25.00;90.90;;;;;;5084924;28;19931;-57
2022/08/27 13:11:21;;;;;;;;;;;24.80;90.80;;;;;;5085159;28;19925;-56
2022/08/27 13:13:49;;;;;;;;;;;24.70;91.10;;;;;;5086106;28;19927;-57
2022/08/27 13:16:18;;;;;;;;;;;24.80;91.30;;;;;;5084981;28;19931;-57
2022/08/27 13:18:49;;;;;;;;;;;25.20;91.00;;;;;;5085695;28;19924;-57
2022/08/27 13:21:20;;;;;;;;;;;25.70;91.10;;;;;;5086032;28;19924;-57
2022/08/27 13:23:55;;;;;;;;;;;26.30;89.40;;;;;;5084472;28;19924;-57
2022/08/27 13:26:24;;;;;;;;;;;26.50;88.80;;;;;;5085010;28;19931;-57
2022/08/27 13:28:52;;;;;;;;;;;26.30;87.80;;;;;;5085992;28;20414;-57
2022/08/27 13:31:21;;;;;;;;;;;26.00;88.60;;;;;;5085107;28;19924;-57
2022/08/27 13:33:49;;;;;;;;;;;25.70;88.50;;;;;;5084456;28;20117;-57
2022/08/27 13:36:48;;;;;;;;;;;25.40;89.30;;;;;;5085708;28;19935;-57
2022/08/27 13:39:16;;;;;;;;;;;25.20;89.60;;;;;;5085484;28;20272;-57
2022/08/27 13:41:46;;;;;;;;;;;25.00;90.00;;;;;;5085797;28;19931;-58
2022/08/27 13:44:22;;;;;;;;;;;24.80;90.30;;;;;;5085356;28;19924;-58
2022/08/27 13:46:53;;;;;;;;;;;24.50;90.70;;;;;;5085753;28;19928;-58
2022/08/27 13:49:23;;;;;;;;;;;24.20;91.10;;;;;;5085369;28;19924;-57
2022/08/27 13:52:10;;;;;;;;;;;24.00;91.60;;;;;;5085640;28;19924;-57
2022/08/27 13:54:41;;;;;;;;;;;23.70;91.90;;;;;;5080648;28;19924;-58
2022/08/27 13:57:10;;;;;;;;;;;23.60;92.30;;;;;;5084553;28;19951;-57
2022/08/27 13:59:39;;;;;;;;;;;23.40;92.70;;;;;;5086142;28;19924;-58
2022/08/27 14:02:09;;;;;;;;;;;23.20;93.00;;;;;;5085572;28;19935;-57
2022/08/27 14:04:43;;;;;;;;;;;23.00;93.30;;;;;;5085256;28;19928;-57
2022/08/27 14:07:12;;;;;;;;;;;22.90;93.50;;;;;;5085619;28;19935;-56
2022/08/27 14:09:42;;;;;;;;;;;22.80;93.80;;;;;;5084374;28;19935;-56
2022/08/27 14:12:09;;;;;;;;;;;22.80;94.00;;;;;;5085322;28;20390;-57
2022/08/27 14:14:38;;;;;;;;;;;22.70;94.10;;;;;;5084012;28;20295;-57
2022/08/27 14:17:18;;;;;;;;;;;22.70;94.30;;;;;;5083574;28;20406;-57
2022/08/27 14:19:48;;;;;;;;;;;22.70;94.50;;;;;;5085575;28;19924;-57
2022/08/27 14:22:16;;;;;;;;;;;22.70;94.60;;;;;;5084771;28;19938;-57
2022/08/27 14:24:44;;;;;;;;;;;22.70;94.80;;;;;;5085254;28;19931;-57
2022/08/27 14:27:12;;;;;;;;;;;22.70;95.00;;;;;;5084208;28;20409;-57
2022/08/27 14:29:40;;;;;;;;;;;22.80;95.00;;;;;;5085365;28;19928;-57
2022/08/27 14:32:08;;;;;;;;;;;22.80;94.90;;;;;;5083999;28;20326;-57
2022/08/27 14:34:36;;;;;;;;;;;22.90;95.00;;;;;;5085129;28;19928;-57
2022/08/27 14:37:04;;;;;;;;;;;22.90;94.90;;;;;;5067381;28;19928;-58
2022/08/27 14:39:31;;;;;;;;;;;22.90;94.70;;;;;;5085792;28;20393;-57
2022/08/27 14:42:01;;;;;;;;;;;23.00;94.90;;;;;;5086936;28;20343;-56
2022/08/27 14:44:31;;;;;;;;;;;23.10;95.20;;;;;;5086448;28;19935;-57